sensor_id;sensor_type;location;lat;lon;timestamp;pressure;altitude;pressure_sealevel;temperature;humidity
55656;BME280;41530;52.382;5.270;2023-09-19T00:01:33;100829.53;;;22.02;50.29
55656;BME280;41530;52.382;5.270;2023-09-19T00:04:01;100831.38;;;22.02;50.12
55656;BME280;41530;52.382;5.270;2023-09-19T00:06:29;100834.03;;;22.02;50.65
55656;BME280;41530;52.382;5.270;2023-09-19T00:08:57;100841.25;;;22.01;50.39
55656;BME280;41530;52.382;5.270;2023-09-19T00:11:26;100843.94;;;22.01;50.31
55656;BME280;41530;52.382;5.270;2023-09-19T00:13:53;100843.09;;;22.01;50.36
55656;BME280;41530;52.382;5.270;2023-09-19T00:16:20;100843.28;;;21.99;50.41
55656;BME280;41530;52.382;5.270;2023-09-19T00:18:47;100853.97;;;21.99;50.27
55656;BME280;41530;52.382;5.270;2023-09-19T00:21:15;100854.97;;;21.98;50.47
55656;BME280;41530;52.382;5.270;2023-09-19T00:23:41;100850.81;;;21.96;50.36
55656;BME280;41530;52.382;5.270;2023-09-19T00:26:08;100865.06;;;21.96;50.53
55656;BME280;41530;52.382;5.270;2023-09-19T00:28:34;100854.34;;;21.96;50.61
55656;BME280;41530;52.382;5.270;2023-09-19T00:31:01;100858.88;;;21.96;50.40
55656;BME280;41530;52.382;5.270;2023-09-19T00:33:28;100859.88;;;21.95;50.63
55656;BME280;41530;52.382;5.270;2023-09-19T00:35:58;100865.22;;;21.95;50.55
55656;BME280;41530;52.382;5.270;2023-09-19T00:38:24;100868.09;;;21.93;50.50
55656;BME280;41530;52.382;5.270;2023-09-19T00:40:53;100868.09;;;21.93;50.53
55656;BME280;41530;52.382;5.270;2023-09-19T00:43:23;100874.44;;;21.92;50.63
55656;BME280;41530;52.382;5.270;2023-09-19T00:45:51;100882.50;;;21.92;50.53
55656;BME280;41530;52.382;5.270;2023-09-19T00:48:20;100877.31;;;21.91;50.51
55656;BME280;41530;52.382;5.270;2023-09-19T00:50:47;100876.47;;;21.90;50.77
55656;BME280;41530;52.382;5.270;2023-09-19T00:53:15;100883.00;;;21.88;50.63
55656;BME280;41530;52.382;5.270;2023-09-19T00:55:45;100879.50;;;21.87;50.53
55656;BME280;41530;52.382;5.270;2023-09-19T00:58:12;100886.25;;;21.83;50.26
55656;BME280;41530;52.382;5.270;2023-09-19T01:00:40;100885.59;;;21.81;50.19
55656;BME280;41530;52.382;5.270;2023-09-19T01:03:06;100880.41;;;21.80;50.33
55656;BME280;41530;52.382;5.270;2023-09-19T01:05:33;100881.91;;;21.82;50.58
55656;BME280;41530;52.382;5.270;2023-09-19T01:08:00;100878.38;;;21.82;50.38
55656;BME280;41530;52.382;5.270;2023-09-19T01:10:27;100885.59;;;21.81;50.37
55656;BME280;41530;52.382;5.270;2023-09-19T01:13:13;100888.63;;;21.78;50.27
55656;BME280;41530;52.382;5.270;2023-09-19T01:15:51;100887.13;;;21.76;50.52
55656;BME280;41530;52.382;5.270;2023-09-19T01:18:22;100887.97;;;21.76;50.31
55656;BME280;41530;52.382;5.270;2023-09-19T01:21:00;100888.97;;;21.75;50.54
55656;BME280;41530;52.382;5.270;2023-09-19T01:28:52;100882.13;;;21.73;50.49
55656;BME280;41530;52.382;5.270;2023-09-19T01:31:23;100875.94;;;21.72;50.54
55656;BME280;41530;52.382;5.270;2023-09-19T01:33:54;100884.97;;;21.71;50.46
55656;BME280;41530;52.382;5.270;2023-09-19T01:36:35;100888.69;;;21.70;50.33
55656;BME280;41530;52.382;5.270;2023-09-19T01:39:04;100878.16;;;21.68;50.67
55656;BME280;41530;52.382;5.270;2023-09-19T01:41:35;100891.53;;;21.68;50.47
55656;BME280;41530;52.382;5.270;2023-09-19T01:44:05;100883.50;;;21.68;50.47
55656;BME280;41530;52.382;5.270;2023-09-19T01:46:33;100891.72;;;21.67;50.33
55656;BME280;41530;52.382;5.270;2023-09-19T01:51:33;100903.44;;;21.66;50.20
55656;BME280;41530;52.382;5.270;2023-09-19T01:54:02;100888.19;;;21.66;50.62
55656;BME280;41530;52.382;5.270;2023-09-19T01:58:59;100884.88;;;21.64;50.51
55656;BME280;41530;52.382;5.270;2023-09-19T02:01:30;100882.38;;;21.63;50.21
55656;BME280;41530;52.382;5.270;2023-09-19T02:03:57;100874.50;;;21.61;50.42
55656;BME280;41530;52.382;5.270;2023-09-19T02:06:24;100878.19;;;21.60;50.34
55656;BME280;41530;52.382;5.270;2023-09-19T02:08:51;100865.53;;;21.54;50.16
55656;BME280;41530;52.382;5.270;2023-09-19T02:11:18;100881.03;;;21.59;50.41
55656;BME280;41530;52.382;5.270;2023-09-19T02:13:44;100882.06;;;21.58;50.30
55656;BME280;41530;52.382;5.270;2023-09-19T02:16:11;100885.56;;;21.58;50.00
55656;BME280;41530;52.382;5.270;2023-09-19T02:18:39;100881.41;;;21.56;50.13
55656;BME280;41530;52.382;5.270;2023-09-19T02:21:05;100883.25;;;21.55;50.17
55656;BME280;41530;52.382;5.270;2023-09-19T02:23:36;100889.63;;;21.54;50.38
55656;BME280;41530;52.382;5.270;2023-09-19T02:26:02;100893.13;;;21.55;50.05
55656;BME280;41530;52.382;5.270;2023-09-19T02:28:32;100898.84;;;21.52;50.13
55656;BME280;41530;52.382;5.270;2023-09-19T02:30:59;100901.69;;;21.50;50.10
55656;BME280;41530;52.382;5.270;2023-09-19T02:33:25;100899.84;;;21.51;50.25
55656;BME280;41530;52.382;5.270;2023-09-19T02:35:55;100891.16;;;21.49;50.09
55656;BME280;41530;52.382;5.270;2023-09-19T02:38:24;100895.66;;;21.48;50.37
55656;BME280;41530;52.382;5.270;2023-09-19T02:40:52;100901.03;;;21.48;50.43
55656;BME280;41530;52.382;5.270;2023-09-19T02:43:18;100907.22;;;21.49;50.37
55656;BME280;41530;52.382;5.270;2023-09-19T02:45:48;100911.72;;;21.48;50.51
55656;BME280;41530;52.382;5.270;2023-09-19T02:48:23;100911.91;;;21.47;50.47
55656;BME280;41530;52.382;5.270;2023-09-19T02:50:51;100913.75;;;21.46;50.39
55656;BME280;41530;52.382;5.270;2023-09-19T02:53:18;100897.56;;;21.40;50.48
55656;BME280;41530;52.382;5.270;2023-09-19T02:55:46;100897.84;;;21.45;50.42
55656;BME280;41530;52.382;5.270;2023-09-19T02:58:13;100899.91;;;21.43;50.18
55656;BME280;41530;52.382;5.270;2023-09-19T03:00:41;100900.91;;;21.42;50.47
55656;BME280;41530;52.382;5.270;2023-09-19T03:03:13;100899.41;;;21.39;50.18
55656;BME280;41530;52.382;5.270;2023-09-19T03:05:42;100891.41;;;21.31;50.08
55656;BME280;41530;52.382;5.270;2023-09-19T03:08:16;100888.22;;;21.36;49.97
55656;BME280;41530;52.382;5.270;2023-09-19T03:10:45;100892.91;;;21.33;49.89
55656;BME280;41530;52.382;5.270;2023-09-19T03:13:12;100894.75;;;21.33;49.73
55656;BME280;41530;52.382;5.270;2023-09-19T03:15:42;100887.94;;;21.30;49.69
55656;BME280;41530;52.382;5.270;2023-09-19T03:18:12;100888.72;;;21.31;49.73
55656;BME280;41530;52.382;5.270;2023-09-19T03:20:39;100882.56;;;21.30;50.05
55656;BME280;41530;52.382;5.270;2023-09-19T03:23:06;100887.94;;;21.30;49.83
55656;BME280;41530;52.382;5.270;2023-09-19T03:25:35;100883.59;;;21.29;49.94
55656;BME280;41530;52.382;5.270;2023-09-19T03:28:03;100872.22;;;21.27;49.53
55656;BME280;41530;52.382;5.270;2023-09-19T03:30:32;100878.41;;;21.28;49.59
55656;BME280;41530;52.382;5.270;2023-09-19T03:33:00;100889.28;;;21.26;49.84
55656;BME280;41530;52.382;5.270;2023-09-19T03:35:27;100883.09;;;21.26;49.65
55656;BME280;41530;52.382;5.270;2023-09-19T03:37:53;100882.25;;;21.25;49.72
55656;BME280;41530;52.382;5.270;2023-09-19T03:40:20;100870.91;;;21.23;49.48
55656;BME280;41530;52.382;5.270;2023-09-19T03:42:48;100876.25;;;21.23;50.03
55656;BME280;41530;52.382;5.270;2023-09-19T03:45:15;100873.56;;;21.23;49.71
55656;BME280;41530;52.382;5.270;2023-09-19T03:47:42;100872.06;;;21.21;49.38
55656;BME280;41530;52.382;5.270;2023-09-19T03:50:09;100887.28;;;21.20;49.39
55656;BME280;41530;52.382;5.270;2023-09-19T03:52:38;100890.97;;;21.19;49.80
55656;BME280;41530;52.382;5.270;2023-09-19T03:55:05;100904.69;;;21.16;49.64
55656;BME280;41530;52.382;5.270;2023-09-19T03:57:32;100906.31;;;21.17;49.58
55656;BME280;41530;52.382;5.270;2023-09-19T03:59:58;100898.50;;;21.16;49.87
55656;BME280;41530;52.382;5.270;2023-09-19T04:02:25;100907.53;;;21.15;49.57
55656;BME280;41530;52.382;5.270;2023-09-19T04:04:51;100906.69;;;21.14;49.58
55656;BME280;41530;52.382;5.270;2023-09-19T04:07:18;100910.22;;;21.15;49.97
55656;BME280;41530;52.382;5.270;2023-09-19T04:09:45;100915.56;;;21.15;49.72
55656;BME280;41530;52.382;5.270;2023-09-19T04:12:12;100930.94;;;21.13;49.57
55656;BME280;41530;52.382;5.270;2023-09-19T04:14:39;100926.59;;;21.12;49.59
55656;BME280;41530;52.382;5.270;2023-09-19T04:17:05;100936.47;;;21.11;49.79
55656;BME280;41530;52.382;5.270;2023-09-19T04:19:36;100931.28;;;21.10;49.57
55656;BME280;41530;52.382;5.270;2023-09-19T04:22:03;100927.94;;;21.08;49.67
55656;BME280;41530;52.382;5.270;2023-09-19T04:24:30;100923.78;;;21.05;49.49
55656;BME280;41530;52.382;5.270;2023-09-19T04:26:58;100927.28;;;21.06;49.77
55656;BME280;41530;52.382;5.270;2023-09-19T04:29:25;100936.31;;;21.05;49.67
55656;BME280;41530;52.382;5.270;2023-09-19T04:31:56;100940.81;;;21.04;49.78
55656;BME280;41530;52.382;5.270;2023-09-19T04:34:23;100948.38;;;21.01;49.67
55656;BME280;41530;52.382;5.270;2023-09-19T04:36:50;100943.03;;;21.01;49.75
55656;BME280;41530;52.382;5.270;2023-09-19T04:39:17;100945.88;;;20.99;50.02
55656;BME280;41530;52.382;5.270;2023-09-19T04:41:44;100942.88;;;20.94;49.89
55656;BME280;41530;52.382;5.270;2023-09-19T04:44:11;100946.88;;;20.98;49.84
55656;BME280;41530;52.382;5.270;2023-09-19T04:46:38;100941.53;;;20.98;49.74
55656;BME280;41530;52.382;5.270;2023-09-19T04:49:04;100943.19;;;20.99;49.89
55656;BME280;41530;52.382;5.270;2023-09-19T04:51:31;100948.53;;;20.99;50.24
55656;BME280;41530;52.382;5.270;2023-09-19T04:54:00;100955.56;;;21.00;50.07
55656;BME280;41530;52.382;5.270;2023-09-19T04:56:27;100957.25;;;21.01;50.29
55656;BME280;41530;52.382;5.270;2023-09-19T04:58:54;100958.06;;;21.02;50.15
55656;BME280;41530;52.382;5.270;2023-09-19T05:01:21;100956.22;;;21.02;50.18
55656;BME280;41530;52.382;5.270;2023-09-19T05:03:49;100955.41;;;21.02;50.67
55656;BME280;41530;52.382;5.270;2023-09-19T05:06:19;100959.91;;;21.01;50.28
55656;BME280;41530;52.382;5.270;2023-09-19T05:08:47;100959.91;;;21.01;50.40
55656;BME280;41530;52.382;5.270;2023-09-19T05:11:20;100964.44;;;21.01;50.17
55656;BME280;41530;52.382;5.270;2023-09-19T05:13:49;100962.91;;;20.98;50.40
55656;BME280;41530;52.382;5.270;2023-09-19T05:16:22;100966.28;;;21.00;50.30
55656;BME280;41530;52.382;5.270;2023-09-19T05:18:48;100964.59;;;20.99;50.59
55656;BME280;41530;52.382;5.270;2023-09-19T05:21:16;100953.91;;;20.99;50.24
55656;BME280;41530;52.382;5.270;2023-09-19T05:23:43;100962.09;;;20.97;50.44
55656;BME280;41530;52.382;5.270;2023-09-19T05:26:10;100959.75;;;20.94;50.65
55656;BME280;41530;52.382;5.270;2023-09-19T05:28:37;100955.41;;;20.93;50.41
55656;BME280;41530;52.382;5.270;2023-09-19T05:31:04;100951.88;;;20.93;50.67
55656;BME280;41530;52.382;5.270;2023-09-19T05:33:31;100956.41;;;20.92;50.78
55656;BME280;41530;52.382;5.270;2023-09-19T05:35:58;100967.09;;;20.92;50.98
55656;BME280;41530;52.382;5.270;2023-09-19T05:38:25;100966.28;;;20.92;50.83
55656;BME280;41530;52.382;5.270;2023-09-19T05:40:53;100967.28;;;20.91;50.90
55656;BME280;41530;52.382;5.270;2023-09-19T05:43:20;100964.44;;;20.92;51.14
55656;BME280;41530;52.382;5.270;2023-09-19T05:45:47;100965.44;;;20.91;50.91
55656;BME280;41530;52.382;5.270;2023-09-19T05:48:14;100965.63;;;20.90;51.16
55656;BME280;41530;52.382;5.270;2023-09-19T05:50:42;100966.47;;;20.90;51.11
55656;BME280;41530;52.382;5.270;2023-09-19T05:53:09;100976.34;;;20.90;51.35
55656;BME280;41530;52.382;5.270;2023-09-19T05:55:39;100974.50;;;20.90;51.18
55656;BME280;41530;52.382;5.270;2023-09-19T05:58:06;100970.78;;;20.91;51.20
55656;BME280;41530;52.382;5.270;2023-09-19T06:00:32;100968.31;;;20.90;51.40
55656;BME280;41530;52.382;5.270;2023-09-19T06:03:00;100966.28;;;20.92;51.67
55656;BME280;41530;52.382;5.270;2023-09-19T06:05:27;100977.81;;;20.92;51.24
55656;BME280;41530;52.382;5.270;2023-09-19T06:07:54;100977.81;;;20.92;51.37
55656;BME280;41530;52.382;5.270;2023-09-19T06:10:21;100978.63;;;20.93;51.37
55656;BME280;41530;52.382;5.270;2023-09-19T06:12:49;100974.28;;;20.92;51.15
55656;BME280;41530;52.382;5.270;2023-09-19T06:15:16;100977.81;;;20.92;51.43
55656;BME280;41530;52.382;5.270;2023-09-19T06:17:55;100975.97;;;20.93;51.16
55656;BME280;41530;52.382;5.270;2023-09-19T06:20:22;100976.63;;;20.95;51.04
55656;BME280;41530;52.382;5.270;2023-09-19T06:22:50;100956.91;;;20.96;50.99
55656;BME280;41530;52.382;5.270;2023-09-19T06:25:18;100968.28;;;20.98;51.09
55656;BME280;41530;52.382;5.270;2023-09-19T06:27:49;100948.38;;;21.01;50.92
55656;BME280;41530;52.382;5.270;2023-09-19T06:30:18;100960.38;;;21.05;50.84
55656;BME280;41530;52.382;5.270;2023-09-19T06:32:45;100958.22;;;21.08;51.09
55656;BME280;41530;52.382;5.270;2023-09-19T06:35:12;100966.56;;;21.13;51.04
55656;BME280;41530;52.382;5.270;2023-09-19T06:37:39;100971.56;;;21.16;51.07
55656;BME280;41530;52.382;5.270;2023-09-19T06:42:34;100971.06;;;21.21;50.56
55656;BME280;41530;52.382;5.270;2023-09-19T06:45:04;100978.91;;;21.22;50.70
55656;BME280;41530;52.382;5.270;2023-09-19T06:47:31;100977.09;;;21.23;50.70
55656;BME280;41530;52.382;5.270;2023-09-19T06:49:58;100974.25;;;21.24;50.65
55656;BME280;41530;52.382;5.270;2023-09-19T06:52:25;100974.91;;;21.26;50.60
55656;BME280;41530;52.382;5.270;2023-09-19T06:54:52;100967.72;;;21.27;50.72
55656;BME280;41530;52.382;5.270;2023-09-19T06:57:19;100973.56;;;21.30;51.01
55656;BME280;41530;52.382;5.270;2023-09-19T06:59:46;100975.19;;;21.31;50.96
55656;BME280;41530;52.382;5.270;2023-09-19T07:02:12;100966.84;;;21.34;50.86
55656;BME280;41530;52.382;5.270;2023-09-19T07:04:40;100967.50;;;21.37;50.91
55656;BME280;41530;52.382;5.270;2023-09-19T07:07:07;100977.88;;;21.40;50.92
55656;BME280;41530;52.382;5.270;2023-09-19T07:09:36;100993.59;;;21.43;51.11
55656;BME280;41530;52.382;5.270;2023-09-19T07:12:03;100996.72;;;21.46;50.78
55656;BME280;41530;52.382;5.270;2023-09-19T07:14:32;100985.00;;;21.47;51.08
55656;BME280;41530;52.382;5.270;2023-09-19T07:16:58;100999.88;;;21.50;50.67
55656;BME280;41530;52.382;5.270;2023-09-19T07:19:26;100998.88;;;21.51;51.10
55656;BME280;41530;52.382;5.270;2023-09-19T07:21:56;100998.38;;;21.55;50.64
55656;BME280;41530;52.382;5.270;2023-09-19T07:24:25;101000.03;;;21.56;50.67
55656;BME280;41530;52.382;5.270;2023-09-19T07:26:53;100998.00;;;21.58;50.89
55656;BME280;41530;52.382;5.270;2023-09-19T07:29:20;100997.81;;;21.60;50.81
55656;BME280;41530;52.382;5.270;2023-09-19T07:31:46;101007.19;;;21.64;50.69
55656;BME280;41530;52.382;5.270;2023-09-19T07:34:13;101015.72;;;21.67;50.82
55656;BME280;41530;52.382;5.270;2023-09-19T07:36:40;101004.84;;;21.69;50.87
55656;BME280;41530;52.382;5.270;2023-09-19T07:39:08;101009.19;;;21.70;50.70
55656;BME280;41530;52.382;5.270;2023-09-19T07:41:48;101004.78;;;21.77;50.86
55656;BME280;41530;52.382;5.270;2023-09-19T07:44:16;101011.97;;;21.77;50.79
55656;BME280;41530;52.382;5.270;2023-09-19T07:46:43;101009.97;;;21.79;50.90
55656;BME280;41530;52.382;5.270;2023-09-19T07:49:10;101009.13;;;21.78;50.88
55656;BME280;41530;52.382;5.270;2023-09-19T07:51:37;101010.81;;;21.79;50.96
55656;BME280;41530;52.382;5.270;2023-09-19T07:54:05;101012.13;;;21.83;50.85
55656;BME280;41530;52.382;5.270;2023-09-19T07:56:31;101015.06;;;21.96;50.62
55656;BME280;41530;52.382;5.270;2023-09-19T07:58:58;101008.94;;;22.11;50.29
55656;BME280;41530;52.382;5.270;2023-09-19T08:01:25;101007.56;;;22.23;49.81
55656;BME280;41530;52.382;5.270;2023-09-19T08:03:54;101012.47;;;22.34;49.89
55656;BME280;41530;52.382;5.270;2023-09-19T08:06:20;101003.00;;;22.46;49.37
55656;BME280;41530;52.382;5.270;2023-09-19T08:08:50;101015.31;;;22.55;49.59
55656;BME280;41530;52.382;5.270;2023-09-19T08:11:16;101004.97;;;22.67;49.10
55656;BME280;41530;52.382;5.270;2023-09-19T08:13:47;101004.94;;;22.75;49.19
55656;BME280;41530;52.382;5.270;2023-09-19T08:16:18;101002.19;;;22.83;48.85
55656;BME280;41530;52.382;5.270;2023-09-19T08:18:49;100999.81;;;22.88;48.67
55656;BME280;41530;52.382;5.270;2023-09-19T08:21:19;101001.66;;;22.88;48.70
55656;BME280;41530;52.382;5.270;2023-09-19T08:23:45;100994.88;;;22.92;48.79
55656;BME280;41530;52.382;5.270;2023-09-19T08:26:12;100992.19;;;22.92;48.77
55656;BME280;41530;52.382;5.270;2023-09-19T08:28:38;100991.84;;;22.95;48.73
55656;BME280;41530;52.382;5.270;2023-09-19T08:31:08;100998.41;;;22.92;48.81
55656;BME280;41530;52.382;5.270;2023-09-19T08:33:36;100998.78;;;22.89;48.69
55656;BME280;41530;52.382;5.270;2023-09-19T08:36:04;100993.03;;;22.92;49.01
55656;BME280;41530;52.382;5.270;2023-09-19T08:38:34;100991.34;;;22.91;48.72
55656;BME280;41530;52.382;5.270;2023-09-19T08:41:05;100992.94;;;22.86;48.83
55656;BME280;41530;52.382;5.270;2023-09-19T08:43:32;100994.13;;;22.83;48.91
55656;BME280;41530;52.382;5.270;2023-09-19T08:46:10;100991.28;;;22.85;48.79
55656;BME280;41530;52.382;5.270;2023-09-19T08:48:49;100989.91;;;22.89;48.83
55656;BME280;41530;52.382;5.270;2023-09-19T08:51:27;100994.53;;;22.95;48.84
55656;BME280;41530;52.382;5.270;2023-09-19T08:56:30;101000.84;;;23.02;48.54
55656;BME280;41530;52.382;5.270;2023-09-19T08:59:00;100990.34;;;23.07;48.54
55656;BME280;41530;52.382;5.270;2023-09-19T09:01:27;101001.19;;;23.14;48.27
55656;BME280;41530;52.382;5.270;2023-09-19T09:03:55;101005.72;;;23.13;48.54
55656;BME280;41530;52.382;5.270;2023-09-19T09:06:22;100991.97;;;23.16;48.34
55656;BME280;41530;52.382;5.270;2023-09-19T09:08:50;100994.53;;;23.24;48.18
55656;BME280;41530;52.382;5.270;2023-09-19T09:11:17;100994.59;;;23.31;47.95
55656;BME280;41530;52.382;5.270;2023-09-19T09:13:44;100991.00;;;23.38;48.13
55656;BME280;41530;52.382;5.270;2023-09-19T09:16:11;100982.13;;;23.38;48.05
55656;BME280;41530;52.382;5.270;2023-09-19T09:18:39;100982.00;;;23.46;48.05
55656;BME280;41530;52.382;5.270;2023-09-19T09:21:06;100982.94;;;23.38;48.04
55656;BME280;41530;52.382;5.270;2023-09-19T09:25:59;100979.50;;;23.44;47.93
55656;BME280;41530;52.382;5.270;2023-09-19T09:28:30;100986.19;;;23.34;48.11
55656;BME280;41530;52.382;5.270;2023-09-19T09:30:57;100988.63;;;23.29;48.40
55656;BME280;41530;52.382;5.270;2023-09-19T09:33:35;100984.91;;;23.30;48.32
55656;BME280;41530;52.382;5.270;2023-09-19T09:36:02;100980.09;;;23.25;48.53
55656;BME280;41530;52.382;5.270;2023-09-19T09:38:30;100988.50;;;23.22;48.59
55656;BME280;41530;52.382;5.270;2023-09-19T09:41:09;100997.09;;;23.18;48.63
55656;BME280;41530;52.382;5.270;2023-09-19T09:43:38;100998.53;;;23.14;48.83
55656;BME280;41530;52.382;5.270;2023-09-19T09:46:17;100992.88;;;23.08;48.98
55656;BME280;41530;52.382;5.270;2023-09-19T09:51:43;101000.19;;;23.00;48.85
55656;BME280;41530;52.382;5.270;2023-09-19T09:54:17;100981.56;;;22.98;48.96
55656;BME280;41530;52.382;5.270;2023-09-19T09:57:00;100984.06;;;23.00;49.09
55656;BME280;41530;52.382;5.270;2023-09-19T09:59:55;100988.97;;;22.96;49.19
55656;BME280;41530;52.382;5.270;2023-09-19T10:02:30;100976.56;;;22.95;49.16
55656;BME280;41530;52.382;5.270;2023-09-19T10:05:19;100971.03;;;22.97;49.26
55656;BME280;41530;52.382;5.270;2023-09-19T10:07:47;100968.63;;;23.02;49.21
55656;BME280;41530;52.382;5.270;2023-09-19T10:12:56;100967.50;;;23.11;48.91
55656;BME280;41530;52.382;5.270;2023-09-19T10:15:31;100959.00;;;23.07;49.04
55656;BME280;41530;52.382;5.270;2023-09-19T10:18:00;100957.31;;;23.06;49.03
55656;BME280;41530;52.382;5.270;2023-09-19T10:20:27;100950.47;;;23.04;49.32
55656;BME280;41530;52.382;5.270;2023-09-19T10:22:57;100942.25;;;23.05;49.09
55656;BME280;41530;52.382;5.270;2023-09-19T10:25:27;100935.84;;;23.06;49.00
55656;BME280;41530;52.382;5.270;2023-09-19T10:27:58;100931.44;;;23.14;49.01
55656;BME280;41530;52.382;5.270;2023-09-19T10:30:29;100928.44;;;23.23;48.73
55656;BME280;41530;52.382;5.270;2023-09-19T10:33:01;100925.47;;;23.33;48.53
55656;BME280;41530;52.382;5.270;2023-09-19T10:35:28;100928.78;;;23.35;48.58
55656;BME280;41530;52.382;5.270;2023-09-19T10:38:01;100925.47;;;23.33;48.81
55656;BME280;41530;52.382;5.270;2023-09-19T10:40:30;100919.44;;;23.31;48.88
55656;BME280;41530;52.382;5.270;2023-09-19T10:43:03;100919.66;;;23.29;48.71
55656;BME280;41530;52.382;5.270;2023-09-19T10:45:33;100917.34;;;23.26;48.77
55656;BME280;41530;52.382;5.270;2023-09-19T10:48:01;100908.63;;;23.24;48.93
55656;BME280;41530;52.382;5.270;2023-09-19T10:50:51;100917.91;;;23.22;48.80
55656;BME280;41530;52.382;5.270;2023-09-19T10:53:18;100906.50;;;23.20;49.06
55656;BME280;41530;52.382;5.270;2023-09-19T10:55:50;100909.38;;;23.18;48.82
55656;BME280;41530;52.382;5.270;2023-09-19T10:58:26;100908.75;;;23.16;48.99
55656;BME280;41530;52.382;5.270;2023-09-19T11:00:56;100908.09;;;23.14;49.18
55656;BME280;41530;52.382;5.270;2023-09-19T11:03:23;100909.78;;;23.15;49.19
55656;BME280;41530;52.382;5.270;2023-09-19T11:06:03;100894.03;;;23.12;49.48
55656;BME280;41530;52.382;5.270;2023-09-19T11:08:56;100886.34;;;23.09;49.28
55656;BME280;41530;52.382;5.270;2023-09-19T11:11:47;100893.75;;;23.07;49.48
55656;BME280;41530;52.382;5.270;2023-09-19T11:30:49;100879.44;;;23.00;49.65
55656;BME280;41530;52.382;5.270;2023-09-19T11:36:08;100892.50;;;23.03;49.75
55656;BME280;41530;52.382;5.270;2023-09-19T11:46:27;100868.13;;;23.04;49.67
55656;BME280;41530;52.382;5.270;2023-09-19T11:48:54;100870.81;;;23.04;49.79
55656;BME280;41530;52.382;5.270;2023-09-19T11:51:23;100872.66;;;23.04;49.66
55656;BME280;41530;52.382;5.270;2023-09-19T11:53:56;100878.25;;;23.02;49.75
55656;BME280;41530;52.382;5.270;2023-09-19T11:56:26;100883.59;;;23.02;49.97
55656;BME280;41530;52.382;5.270;2023-09-19T11:58:58;100864.16;;;23.00;49.92
55656;BME280;41530;52.382;5.270;2023-09-19T12:01:32;100873.78;;;22.95;49.88
55656;BME280;41530;52.382;5.270;2023-09-19T12:04:01;100878.59;;;22.99;49.98
55656;BME280;41530;52.382;5.270;2023-09-19T12:06:29;100873.41;;;22.98;49.84
55656;BME280;41530;52.382;5.270;2023-09-19T12:08:59;100878.97;;;22.96;49.99
55656;BME280;41530;52.382;5.270;2023-09-19T12:11:27;100885.34;;;22.95;50.01
55656;BME280;41530;52.382;5.270;2023-09-19T12:13:55;100887.19;;;22.95;50.10
55656;BME280;41530;52.382;5.270;2023-09-19T12:16:25;100882.84;;;22.94;50.00
55656;BME280;41530;52.382;5.270;2023-09-19T12:18:52;100895.44;;;22.93;50.30
55656;BME280;41530;52.382;5.270;2023-09-19T12:23:57;100874.38;;;22.90;50.08
55656;BME280;41530;52.382;5.270;2023-09-19T12:26:24;100875.38;;;22.89;50.13
55656;BME280;41530;52.382;5.270;2023-09-19T12:28:50;100880.75;;;22.89;50.18
55656;BME280;41530;52.382;5.270;2023-09-19T12:31:19;100865.66;;;22.88;50.24
55656;BME280;41530;52.382;5.270;2023-09-19T12:33:45;100893.50;;;22.87;50.17
55656;BME280;41530;52.382;5.270;2023-09-19T12:36:22;100884.63;;;22.87;50.32
55656;BME280;41530;52.382;5.270;2023-09-19T12:38:58;100880.28;;;22.86;50.30
55656;BME280;41530;52.382;5.270;2023-09-19T12:41:26;100890.19;;;22.85;50.13
55656;BME280;41530;52.382;5.270;2023-09-19T12:43:53;100888.31;;;22.86;50.36
55656;BME280;41530;52.382;5.270;2023-09-19T12:46:23;100871.41;;;22.85;50.40
55656;BME280;41530;52.382;5.270;2023-09-19T12:51:39;100860.50;;;22.87;50.53
55656;BME280;41530;52.382;5.270;2023-09-19T12:54:06;100875.56;;;22.88;50.27
55656;BME280;41530;52.382;5.270;2023-09-19T12:56:39;100887.13;;;22.88;50.37
55656;BME280;41530;52.382;5.270;2023-09-19T12:59:12;100872.69;;;22.89;50.34
55656;BME280;41530;52.382;5.270;2023-09-19T13:01:40;100867.53;;;22.88;50.28
55656;BME280;41530;52.382;5.270;2023-09-19T13:06:41;100869.38;;;22.87;50.28
55656;BME280;41530;52.382;5.270;2023-09-19T13:09:10;100877.59;;;22.86;50.41
55656;BME280;41530;52.382;5.270;2023-09-19T13:11:37;100876.59;;;22.87;50.33
55656;BME280;41530;52.382;5.270;2023-09-19T13:19:40;100880.28;;;22.86;50.50
55656;BME280;41530;52.382;5.270;2023-09-19T13:24:53;100860.50;;;22.87;50.54
55656;BME280;41530;52.382;5.270;2023-09-19T13:27:22;100867.06;;;22.84;50.36
55656;BME280;41530;52.382;5.270;2023-09-19T13:29:48;100864.19;;;22.86;50.48
55656;BME280;41530;52.382;5.270;2023-09-19T13:32:15;100866.03;;;22.85;50.47
55656;BME280;41530;52.382;5.270;2023-09-19T13:34:41;100866.03;;;22.85;50.67
55656;BME280;41530;52.382;5.270;2023-09-19T13:37:08;100864.19;;;22.86;50.41
55656;BME280;41530;52.382;5.270;2023-09-19T13:39:36;100876.75;;;22.85;50.55
55656;BME280;41530;52.382;5.270;2023-09-19T13:42:02;100874.25;;;22.84;50.64
55656;BME280;41530;52.382;5.270;2023-09-19T13:44:29;100876.13;;;22.83;50.46
55656;BME280;41530;52.382;5.270;2023-09-19T13:46:56;100864.56;;;22.83;50.54
55656;BME280;41530;52.382;5.270;2023-09-19T13:49:23;100874.44;;;22.82;50.57
55656;BME280;41530;52.382;5.270;2023-09-19T13:51:49;100881.66;;;22.82;50.77
55656;BME280;41530;52.382;5.270;2023-09-19T13:54:16;100889.06;;;22.80;50.48
55656;BME280;41530;52.382;5.270;2023-09-19T13:56:42;100899.78;;;22.80;50.74
55656;BME280;41530;52.382;5.270;2023-09-19T13:59:09;100887.94;;;22.74;50.69
55656;BME280;41530;52.382;5.270;2023-09-19T14:01:36;100881.00;;;22.80;50.65
55656;BME280;41530;52.382;5.270;2023-09-19T14:04:02;100866.75;;;22.79;50.63
55656;BME280;41530;52.382;5.270;2023-09-19T14:06:29;100869.63;;;22.78;50.78